createdAt,value
2022-09-25T00:01:12.106Z,101828.88
2022-09-25T00:03:39.918Z,101831.63
2022-09-25T00:06:09.890Z,101828.09
2022-09-25T00:08:37.485Z,101820.13
2022-09-25T00:11:16.421Z,101829.88
2022-09-25T00:13:44.745Z,101831.69
2022-09-25T00:16:15.372Z,101829.03
2022-09-25T00:19:01.234Z,101824.66
2022-09-25T00:21:31.624Z,101820.28
2022-09-25T00:24:04.627Z,101804.44
2022-09-25T00:26:35.015Z,101804.47
2022-09-25T00:29:03.221Z,101799.19
2022-09-25T00:31:31.178Z,101799.25
2022-09-25T00:34:03.542Z,101798.41
2022-09-25T00:36:31.064Z,101798.41
2022-09-25T00:38:58.579Z,101797.63
2022-09-25T00:41:27.655Z,101794.97
2022-09-25T00:43:56.574Z,101795.00
2022-09-25T00:46:30.051Z,101792.44
2022-09-25T00:49:13.225Z,101780.09
2022-09-25T00:51:46.713Z,101791.50
2022-09-25T00:54:18.635Z,101784.53
2022-09-25T00:56:48.971Z,101787.19
2022-09-25T00:59:23.088Z,101780.22
2022-09-25T01:01:50.011Z,101777.59
2022-09-25T01:04:18.605Z,101769.72
2022-09-25T01:06:45.869Z,101771.41
2022-09-25T01:09:12.801Z,101764.41
2022-09-25T01:11:39.637Z,101766.31
2022-09-25T01:14:08.840Z,101764.44
2022-09-25T01:16:45.754Z,101763.66
2022-09-25T01:19:39.892Z,101760.16
2022-09-25T01:22:12.378Z,101755.66
2022-09-25T01:24:48.176Z,101749.53
2022-09-25T01:27:24.089Z,101747.75
2022-09-25T01:30:04.660Z,101735.44
2022-09-25T01:32:51.940Z,101729.25
2022-09-25T01:35:33.927Z,101728.38
2022-09-25T01:38:41.796Z,101724.88
2022-09-25T01:41:30.648Z,101711.69
2022-09-25T01:43:59.103Z,101722.31
2022-09-25T01:46:33.818Z,101714.41
2022-09-25T01:49:09.720Z,101713.53
2022-09-25T01:51:42.460Z,101709.16
2022-09-25T01:54:13.432Z,101693.25
2022-09-25T01:56:48.525Z,101691.53
2022-09-25T01:59:34.748Z,101689.81
2022-09-25T02:02:04.761Z,101687.16
2022-09-25T02:04:43.221Z,101683.66
2022-09-25T02:07:14.696Z,101685.44
2022-09-25T02:09:47.710Z,101680.22
2022-09-25T02:12:26.044Z,101677.56
2022-09-25T02:15:03.083Z,101680.22
2022-09-25T02:17:54.083Z,101669.72
2022-09-25T02:20:32.988Z,101669.72
2022-09-25T02:23:08.714Z,101665.31
2022-09-25T02:25:53.114Z,101659.16
2022-09-25T02:28:20.072Z,101659.25
2022-09-25T02:30:47.754Z,101662.75
2022-09-25T02:33:14.696Z,101665.41
2022-09-25T02:35:42.548Z,101665.41
2022-09-25T02:38:09.801Z,101653.06
2022-09-25T02:41:12.399Z,101657.59
2022-09-25T02:44:10.801Z,101658.47
2022-09-25T02:46:56.170Z,101647.03
2022-09-25T02:49:59.514Z,101645.25
2022-09-25T02:52:50.173Z,101650.69
2022-09-25T02:55:31.137Z,101656.97
2022-09-25T02:58:12.124Z,101653.34
2022-09-25T03:00:41.038Z,101643.59
2022-09-25T03:03:11.708Z,101636.56
2022-09-25T03:05:39.431Z,101637.56
2022-09-25T03:08:25.854Z,101626.97
2022-09-25T03:10:52.702Z,101630.56
2022-09-25T03:13:26.691Z,101625.28
2022-09-25T03:15:59.229Z,101614.72
2022-09-25T03:18:26.784Z,101614.81
2022-09-25T03:20:53.640Z,101609.41
2022-09-25T03:23:20.706Z,101604.03
2022-09-25T03:25:50.367Z,101597.97
2022-09-25T03:28:17.458Z,101603.28
2022-09-25T03:30:44.733Z,101606.75
2022-09-25T03:33:12.892Z,101605.91
2022-09-25T03:35:40.614Z,101598.09
2022-09-25T03:38:10.646Z,101613.06
2022-09-25T03:40:37.608Z,101600.75
2022-09-25T03:45:30.268Z,101583.13
2022-09-25T03:47:57.110Z,101585.69
2022-09-25T03:50:23.930Z,101586.63
2022-09-25T03:52:50.726Z,101582.19
2022-09-25T03:55:17.686Z,101575.16
2022-09-25T03:57:44.486Z,101569.94
2022-09-25T04:00:11.934Z,101568.22
2022-09-25T04:02:38.920Z,101562.03
2022-09-25T04:05:06.362Z,101560.34
2022-09-25T04:07:33.183Z,101556.72
2022-09-25T04:10:00.010Z,101555.03
2022-09-25T04:12:26.945Z,101549.78
2022-09-25T04:14:54.148Z,101555.97
2022-09-25T04:17:21.460Z,101548.09
2022-09-25T04:19:48.275Z,101535.66
2022-09-25T04:22:15.093Z,101538.31
2022-09-25T04:24:50.952Z,101533.97
2022-09-25T04:27:21.929Z,101535.75
2022-09-25T04:29:49.693Z,101530.50
2022-09-25T04:32:36.001Z,101534.88
2022-09-25T04:35:02.962Z,101535.91
2022-09-25T04:37:29.895Z,101535.91
2022-09-25T04:39:57.757Z,101526.16
2022-09-25T04:42:25.647Z,101521.78
2022-09-25T04:44:54.787Z,101523.50
2022-09-25T04:47:27.105Z,101516.47
2022-09-25T04:49:53.975Z,101506.72
2022-09-25T04:52:20.971Z,101505.16
2022-09-25T04:54:48.426Z,101498.03
2022-09-25T04:57:45.557Z,101491.97
2022-09-25T05:00:08.236Z,101489.31
2022-09-25T05:02:35.179Z,101482.28
2022-09-25T05:05:02.241Z,101484.09
2022-09-25T05:07:29.129Z,101472.63
2022-09-25T05:09:56.073Z,101468.34
2022-09-25T05:12:22.960Z,101471.84
2022-09-25T05:14:50.224Z,101472.78
2022-09-25T05:17:17.096Z,101461.25
2022-09-25T05:19:43.902Z,101451.56
2022-09-25T05:22:10.759Z,101451.56
2022-09-25T05:24:38.677Z,101449.00
2022-09-25T05:27:05.571Z,101440.09
2022-09-25T05:29:32.412Z,101443.63
2022-09-25T05:31:59.791Z,101444.53
2022-09-25T05:34:27.055Z,101442.84
2022-09-25T05:36:53.948Z,101440.19
2022-09-25T05:39:20.779Z,101434.88
2022-09-25T05:41:47.571Z,101426.94
2022-09-25T05:44:15.189Z,101430.50
2022-09-25T05:46:42.482Z,101429.63
2022-09-25T05:49:09.496Z,101421.94
2022-09-25T05:51:36.366Z,101434.13
2022-09-25T05:54:03.373Z,101428.97
2022-09-25T05:56:30.825Z,101428.97
2022-09-25T05:58:58.825Z,101427.22
2022-09-25T06:01:26.411Z,101435.09
2022-09-25T06:03:53.312Z,101434.41
2022-09-25T06:06:23.780Z,101434.66
2022-09-25T06:08:54.842Z,101430.13
2022-09-25T06:11:22.610Z,101429.09
2022-09-25T06:13:54.218Z,101419.38
2022-09-25T06:16:21.645Z,101428.97
2022-09-25T06:18:48.812Z,101431.59
2022-09-25T06:21:15.760Z,101434.41
2022-09-25T06:23:45.632Z,101428.69
2022-09-25T06:26:14.405Z,101425.03
2022-09-25T06:28:41.453Z,101427.66
2022-09-25T06:31:08.451Z,101430.03
2022-09-25T06:33:35.421Z,101432.28
2022-09-25T06:36:02.537Z,101430.41
2022-09-25T06:38:29.476Z,101420.69
2022-09-25T06:40:59.880Z,101410.13
2022-09-25T06:43:28.302Z,101408.19
2022-09-25T06:45:55.275Z,101404.53
2022-09-25T06:48:22.585Z,101401.72
2022-09-25T06:50:52.992Z,101389.34
2022-09-25T06:53:22.057Z,101389.25
2022-09-25T06:55:49.877Z,101400.72
2022-09-25T06:58:23.002Z,101399.16
2022-09-25T07:00:51.583Z,101388.09
2022-09-25T07:03:37.412Z,101385.03
2022-09-25T07:06:06.313Z,101386.19
2022-09-25T07:08:33.743Z,101379.34
2022-09-25T07:11:02.363Z,101377.47
2022-09-25T07:13:31.808Z,101364.78
2022-09-25T07:16:01.100Z,101360.09
2022-09-25T07:18:29.703Z,101345.03
2022-09-25T07:21:11.358Z,101346.59
2022-09-25T07:23:38.741Z,101347.31
2022-09-25T07:26:14.224Z,101350.66
2022-09-25T07:28:42.735Z,101341.69
2022-09-25T07:31:18.368Z,101332.69
2022-09-25T07:33:46.462Z,101342.22
2022-09-25T07:36:14.829Z,101339.44
2022-09-25T07:38:42.109Z,101327.72
2022-09-25T07:41:13.331Z,101316.94
2022-09-25T07:43:40.471Z,101309.00
2022-09-25T07:46:07.449Z,101294.56
2022-09-25T07:48:34.487Z,101291.81
2022-09-25T07:51:22.277Z,101286.34
2022-09-25T07:53:49.474Z,101284.47
2022-09-25T07:56:17.771Z,101277.47
2022-09-25T07:58:45.482Z,101270.25
2022-09-25T08:01:13.577Z,101284.28
2022-09-25T08:03:40.687Z,101281.56
2022-09-25T08:06:11.978Z,101276.19
2022-09-25T08:08:40.274Z,101277.81
2022-09-25T08:11:11.621Z,101265.50
2022-09-25T08:13:39.568Z,101256.59
2022-09-25T08:16:13.802Z,101275.09
2022-09-25T08:18:42.994Z,101276.53
2022-09-25T08:21:11.071Z,101283.69
2022-09-25T08:23:37.920Z,101282.00
2022-09-25T08:26:04.839Z,101278.53
2022-09-25T08:28:31.719Z,101270.94
2022-09-25T08:31:00.071Z,101265.63
2022-09-25T08:33:27.459Z,101244.91
2022-09-25T08:35:59.606Z,101242.50
2022-09-25T08:38:27.537Z,101247.72
2022-09-25T08:41:06.249Z,101255.81
2022-09-25T08:43:38.036Z,101253.25
2022-09-25T08:46:33.202Z,101249.22
2022-09-25T08:49:03.201Z,101243.22
2022-09-25T08:51:32.845Z,101240.72
2022-09-25T08:54:00.975Z,101234.56
2022-09-25T08:56:29.670Z,101239.72
2022-09-25T08:59:04.887Z,101229.34
2022-09-25T09:01:46.544Z,101222.34
2022-09-25T09:04:24.682Z,101216.41
2022-09-25T09:07:24.733Z,101210.25
2022-09-25T09:10:14.173Z,101214.38
2022-09-25T09:12:45.906Z,101199.25
2022-09-25T09:15:45.339Z,101184.16
2022-09-25T09:18:23.905Z,101179.88
2022-09-25T09:20:56.720Z,101171.66
2022-09-25T09:23:50.152Z,101154.47
2022-09-25T09:26:28.334Z,101150.63
2022-09-25T09:29:02.918Z,101146.88
2022-09-25T09:31:30.065Z,101140.41
2022-09-25T09:34:53.493Z,101118.06
2022-09-25T09:37:31.846Z,101112.50
2022-09-25T09:40:20.537Z,101101.81
2022-09-25T09:43:13.503Z,101102.41
2022-09-25T09:46:27.025Z,101101.47
2022-09-25T09:48:59.962Z,101098.72
2022-09-25T09:51:44.735Z,101096.75
2022-09-25T09:54:21.714Z,101077.06
2022-09-25T09:56:51.532Z,101072.63
2022-09-25T09:59:37.354Z,101076.72
2022-09-25T10:02:25.444Z,101071.25
2022-09-25T10:04:54.266Z,101065.78
2022-09-25T10:07:23.815Z,101067.31
2022-09-25T10:09:51.070Z,101057.47
2022-09-25T10:12:33.997Z,101044.19
2022-09-25T10:15:06.263Z,101033.41
2022-09-25T10:17:38.257Z,101027.94
2022-09-25T10:20:18.384Z,101030.41
2022-09-25T10:22:47.267Z,101016.94
2022-09-25T10:25:14.570Z,101012.59
2022-09-25T10:27:48.121Z,101011.53
2022-09-25T10:30:21.110Z,100980.44
2022-09-25T10:33:04.698Z,100967.97
2022-09-25T10:35:37.577Z,100964.34
2022-09-25T10:38:06.161Z,100966.06
2022-09-25T10:40:38.500Z,100956.13
2022-09-25T10:43:21.173Z,100960.47
2022-09-25T10:45:55.918Z,100961.22
2022-09-25T10:48:53.288Z,100946.06
2022-09-25T10:51:21.752Z,100937.94
2022-09-25T10:53:50.863Z,100940.38
2022-09-25T10:56:24.600Z,100929.66
2022-09-25T10:58:58.357Z,100929.66
2022-09-25T11:01:55.146Z,100914.59
2022-09-25T11:04:25.095Z,100914.59
2022-09-25T11:07:17.289Z,100910.03
2022-09-25T11:09:45.591Z,100907.19
2022-09-25T11:12:23.923Z,100901.72
2022-09-25T11:15:17.497Z,100907.94
2022-09-25T11:17:47.077Z,100899.81
2022-09-25T11:20:16.859Z,100899.81
2022-09-25T11:22:53.103Z,100883.88
2022-09-25T11:25:57.568Z,100866.22
2022-09-25T11:28:45.792Z,100851.81
2022-09-25T11:31:25.870Z,100861.38
2022-09-25T11:34:17.549Z,100857.00
2022-09-25T11:37:14.101Z,100852.44
2022-09-25T11:40:11.798Z,100854.16
2022-09-25T11:42:58.639Z,100855.03
2022-09-25T11:45:37.303Z,100846.09
2022-09-25T11:48:21.676Z,100841.63
2022-09-25T11:51:27.538Z,100831.88
2022-09-25T11:54:31.835Z,100825.50
2022-09-25T11:57:05.328Z,100818.41
2022-09-25T11:59:47.417Z,100815.75
2022-09-25T12:02:44.907Z,100797.91
2022-09-25T12:05:42.704Z,100796.00
2022-09-25T12:08:24.337Z,100782.81
2022-09-25T12:11:17.123Z,100777.50
2022-09-25T12:13:45.239Z,100778.25
2022-09-25T12:16:19.031Z,100772.09
2022-09-25T12:18:52.049Z,100776.47
2022-09-25T12:21:48.259Z,100768.50
2022-09-25T12:24:38.259Z,100757.69
2022-09-25T12:27:17.467Z,100733.78
2022-09-25T12:29:53.764Z,100740.03
2022-09-25T12:32:43.445Z,100752.25
2022-09-25T12:35:22.465Z,100732.81
2022-09-25T12:38:29.433Z,100722.22
2022-09-25T12:41:30.776Z,100710.81
2022-09-25T12:44:07.098Z,100701.03
2022-09-25T12:46:57.837Z,100689.34
2022-09-25T12:49:59.972Z,100689.28
2022-09-25T12:52:48.335Z,100673.34
2022-09-25T12:55:22.363Z,100661.75
2022-09-25T12:58:05.099Z,100655.69
2022-09-25T13:00:35.157Z,100659.41
2022-09-25T13:03:12.140Z,100647.84
2022-09-25T13:05:45.886Z,100654.84
2022-09-25T13:08:39.898Z,100644.94
2022-09-25T13:11:19.506Z,100628.91
2022-09-25T13:13:53.966Z,100629.00
2022-09-25T13:16:22.438Z,100627.13
2022-09-25T13:19:11.655Z,100620.84
2022-09-25T13:21:46.203Z,100616.28
2022-09-25T13:24:17.988Z,100619.69
2022-09-25T13:26:53.845Z,100615.22
2022-09-25T13:29:29.371Z,100613.31
2022-09-25T13:32:13.555Z,100595.38
2022-09-25T13:34:42.451Z,100570.38
2022-09-25T13:37:18.422Z,100540.94
2022-09-25T13:40:08.547Z,100542.41
2022-09-25T13:42:44.358Z,100531.69
2022-09-25T13:45:30.679Z,100519.72
2022-09-25T13:48:06.047Z,100508.09
2022-09-25T13:50:45.546Z,100500.66
2022-09-25T13:53:21.273Z,100482.69
2022-09-25T13:55:48.280Z,100470.03
2022-09-25T13:58:18.277Z,100459.19
2022-09-25T14:00:56.182Z,100435.88
2022-09-25T14:03:44.802Z,100406.19
2022-09-25T14:06:19.339Z,100409.47
2022-09-25T14:08:48.386Z,100406.69
2022-09-25T14:11:20.066Z,100402.94
2022-09-25T14:13:50.980Z,100392.94
2022-09-25T14:16:37.520Z,100401.28
2022-09-25T14:19:06.040Z,100393.09
2022-09-25T14:21:36.180Z,100407.88
2022-09-25T14:24:29.420Z,100403.16
2022-09-25T14:27:04.087Z,100397.50
2022-09-25T14:29:38.560Z,100374.16
2022-09-25T14:32:53.556Z,100364.28
2022-09-25T14:35:25.370Z,100350.72
2022-09-25T14:38:07.133Z,100355.72
2022-09-25T14:40:43.798Z,100332.47
2022-09-25T14:43:46.213Z,100326.22
2022-09-25T14:46:20.452Z,100306.72
2022-09-25T14:49:01.977Z,100321.47
2022-09-25T14:51:41.508Z,100322.09
2022-09-25T14:54:15.669Z,100323.53
2022-09-25T14:56:47.305Z,100298.78
2022-09-25T14:59:20.369Z,100295.97
2022-09-25T15:01:52.977Z,100297.69
2022-09-25T15:04:29.431Z,100292.38
2022-09-25T15:07:15.890Z,100292.16
2022-09-25T15:09:48.723Z,100282.47
2022-09-25T15:12:31.725Z,100290.88
2022-09-25T15:15:03.194Z,100277.72
2022-09-25T15:17:33.221Z,100251.13
2022-09-25T15:20:08.474Z,100264.28
2022-09-25T15:22:39.600Z,100258.72
2022-09-25T15:25:08.499Z,100281.72
2022-09-25T15:27:43.335Z,100282.34
2022-09-25T15:30:20.206Z,100302.31
2022-09-25T15:32:51.688Z,100285.25
2022-09-25T15:35:25.123Z,100269.03
2022-09-25T15:38:06.692Z,100253.53
2022-09-25T15:40:35.187Z,100216.03
2022-09-25T15:43:03.235Z,100192.69
2022-09-25T15:45:33.428Z,100187.22
2022-09-25T15:48:03.160Z,100166.53
2022-09-25T15:50:30.476Z,100164.22
2022-09-25T15:53:01.249Z,100163.13
2022-09-25T15:55:31.739Z,100175.22
2022-09-25T15:58:07.418Z,100173.41
2022-09-25T16:00:52.880Z,100183.91
2022-09-25T16:03:42.522Z,100170.34
2022-09-25T16:06:18.714Z,100163.22
2022-09-25T16:08:46.197Z,100142.75
2022-09-25T16:11:23.346Z,100127.34
2022-09-25T16:13:52.960Z,100120.22
2022-09-25T16:16:31.870Z,100111.97
2022-09-25T16:19:28.322Z,100107.50
2022-09-25T16:21:56.081Z,100099.50
2022-09-25T16:24:29.833Z,100077.09
2022-09-25T16:27:06.242Z,100069.16
2022-09-25T16:29:39.512Z,100031.88
2022-09-25T16:32:11.865Z,100034.41
2022-09-25T16:34:41.233Z,100007.53
2022-09-25T16:37:21.208Z,99982.28
2022-09-25T16:40:20.322Z,99989.75
2022-09-25T16:42:48.109Z,99957.91
2022-09-25T16:45:17.902Z,99945.16
2022-09-25T16:47:49.235Z,99941.91
2022-09-25T16:50:18.041Z,99931.84
2022-09-25T16:52:45.592Z,99928.22
2022-09-25T16:55:21.853Z,99912.94
2022-09-25T16:57:50.749Z,99880.97
2022-09-25T17:00:28.669Z,99879.13
2022-09-25T17:02:56.498Z,99877.06
2022-09-25T17:05:27.217Z,99878.75
2022-09-25T17:07:57.528Z,99887.72
2022-09-25T17:10:29.006Z,99894.75
2022-09-25T17:12:59.268Z,99895.72
2022-09-25T17:15:33.843Z,99889.56
2022-09-25T17:18:02.327Z,99882.38
2022-09-25T17:20:34.510Z,99886.75
2022-09-25T17:23:02.314Z,99874.41
2022-09-25T17:25:37.502Z,99879.72
2022-09-25T17:28:10.792Z,99861.22
2022-09-25T17:30:39.876Z,99861.19
2022-09-25T17:33:15.109Z,99856.38
2022-09-25T17:35:46.543Z,99843.47
2022-09-25T17:38:14.033Z,99829.56
2022-09-25T17:40:47.986Z,99814.84
2022-09-25T17:43:17.986Z,99805.19
2022-09-25T17:45:49.324Z,99799.00
2022-09-25T17:48:28.174Z,99806.13
2022-09-25T17:50:57.739Z,99812.59
2022-09-25T17:53:30.903Z,99801.22
2022-09-25T17:56:01.276Z,99801.94
2022-09-25T17:58:34.598Z,99786.94
2022-09-25T18:01:04.268Z,99759.47
2022-09-25T18:03:31.724Z,99728.47
2022-09-25T18:05:59.347Z,99728.63
2022-09-25T18:08:30.431Z,99751.59
2022-09-25T18:10:59.194Z,99756.81
2022-09-25T18:13:26.996Z,99756.53
2022-09-25T18:15:57.418Z,99758.63
2022-09-25T18:18:25.493Z,99754.03
2022-09-25T18:21:11.549Z,99744.50
2022-09-25T18:23:40.692Z,99739.44
2022-09-25T18:26:09.967Z,99731.88
2022-09-25T18:28:37.663Z,99730.63
2022-09-25T18:31:05.533Z,99725.72
2022-09-25T18:33:32.873Z,99719.28
2022-09-25T18:36:00.596Z,99703.03
2022-09-25T18:38:29.276Z,99669.22
2022-09-25T18:40:56.746Z,99657.75
2022-09-25T18:43:24.349Z,99652.00
2022-09-25T18:45:52.108Z,99617.63
2022-09-25T18:48:19.557Z,99615.66
2022-09-25T18:50:48.989Z,99594.50
2022-09-25T18:53:19.335Z,99603.47
2022-09-25T18:55:47.131Z,99582.69
2022-09-25T18:58:14.547Z,99588.72
2022-09-25T19:00:42.628Z,99583.28
2022-09-25T19:03:10.469Z,99578.78
2022-09-25T19:05:39.388Z,99570.78
2022-09-25T19:08:07.064Z,99545.97
2022-09-25T19:10:38.033Z,99544.00
2022-09-25T19:13:06.595Z,99513.03
2022-09-25T19:15:34.044Z,99497.59
2022-09-25T19:18:02.958Z,99491.81
2022-09-25T19:20:32.438Z,99475.53
2022-09-25T19:23:01.416Z,99482.53
2022-09-25T19:25:32.601Z,99483.94
2022-09-25T19:28:00.042Z,99473.00
2022-09-25T19:30:28.203Z,99459.66
2022-09-25T19:32:55.859Z,99461.31
2022-09-25T19:35:27.549Z,99449.22
2022-09-25T19:37:55.466Z,99432.09
2022-09-25T19:40:38.827Z,99434.75
2022-09-25T19:43:08.845Z,99424.09
2022-09-25T19:45:37.873Z,99411.78
2022-09-25T19:48:09.529Z,99415.44
2022-09-25T19:50:41.721Z,99415.13
2022-09-25T19:53:09.369Z,99417.78
2022-09-25T19:55:38.456Z,99420.16
2022-09-25T19:58:06.059Z,99424.50
2022-09-25T20:00:34.080Z,99432.38
2022-09-25T20:03:01.324Z,99419.56
2022-09-25T20:05:31.268Z,99415.22
2022-09-25T20:08:02.182Z,99414.22
2022-09-25T20:10:30.328Z,99409.59
2022-09-25T20:12:57.832Z,99402.56
2022-09-25T20:15:27.239Z,99401.31
2022-09-25T20:17:57.147Z,99402.28
2022-09-25T20:20:29.836Z,99402.97
2022-09-25T20:22:58.990Z,99398.31
2022-09-25T20:25:29.826Z,99405.34
2022-09-25T20:28:00.122Z,99402.50
2022-09-25T20:30:29.767Z,99392.38
2022-09-25T20:32:57.124Z,99398.41
2022-09-25T20:35:24.679Z,99410.06
2022-09-25T20:37:51.839Z,99402.91
2022-09-25T20:40:19.392Z,99395.06
2022-09-25T20:42:47.586Z,99394.22
2022-09-25T20:45:15.515Z,99397.88
2022-09-25T20:47:46.186Z,99398.84
2022-09-25T20:50:13.724Z,99388.34
2022-09-25T20:52:42.058Z,99390.63
2022-09-25T20:55:13.590Z,99399.06
2022-09-25T20:57:41.573Z,99391.53
2022-09-25T21:00:09.738Z,99396.00
2022-09-25T21:02:36.974Z,99404.47
2022-09-25T21:05:04.380Z,99398.88
2022-09-25T21:07:31.558Z,99398.78
2022-09-25T21:09:58.778Z,99388.28
2022-09-25T21:12:26.070Z,99381.44
2022-09-25T21:14:53.141Z,99372.50
2022-09-25T21:17:20.316Z,99364.78
2022-09-25T21:19:47.253Z,99374.91
2022-09-25T21:22:14.180Z,99362.84
2022-09-25T21:24:41.214Z,99363.28
2022-09-25T21:27:08.398Z,99347.44
2022-09-25T21:29:35.541Z,99341.59
2022-09-25T21:32:03.047Z,99355.31
2022-09-25T21:34:30.610Z,99346.66
2022-09-25T21:36:58.111Z,99341.78
2022-09-25T21:39:25.408Z,99348.38
2022-09-25T21:41:52.678Z,99347.56
2022-09-25T21:44:25.166Z,99341.50
2022-09-25T21:46:52.401Z,99313.66
2022-09-25T21:49:22.018Z,99310.31
2022-09-25T21:51:49.916Z,99301.63
2022-09-25T21:54:17.685Z,99293.94
2022-09-25T21:56:44.841Z,99310.06
2022-09-25T21:59:12.672Z,99296.88
2022-09-25T22:01:40.563Z,99315.81
2022-09-25T22:04:12.688Z,99313.44
2022-09-25T22:06:45.657Z,99320.72
2022-09-25T22:09:15.824Z,99317.38
2022-09-25T22:11:43.987Z,99309.84
2022-09-25T22:14:15.879Z,99313.63
2022-09-25T22:16:45.506Z,99334.94
2022-09-25T22:19:24.807Z,99336.19
2022-09-25T22:21:53.714Z,99341.66
2022-09-25T22:24:21.031Z,99344.59
2022-09-25T22:26:49.552Z,99338.72
2022-09-25T22:29:17.088Z,99340.84
2022-09-25T22:31:44.661Z,99337.34
2022-09-25T22:34:24.761Z,99334.81
2022-09-25T22:36:57.817Z,99326.44
2022-09-25T22:39:26.479Z,99314.94
2022-09-25T22:41:54.789Z,99317.16
2022-09-25T22:44:22.656Z,99326.00
2022-09-25T22:46:49.601Z,99343.91
2022-09-25T22:49:16.557Z,99338.72
2022-09-25T22:51:43.592Z,99336.38
2022-09-25T22:54:13.929Z,99339.31
2022-09-25T22:56:41.625Z,99318.31
2022-09-25T22:59:12.491Z,99320.97
2022-09-25T23:01:45.313Z,99320.28
2022-09-25T23:04:17.824Z,99318.59
2022-09-25T23:06:44.874Z,99336.81
2022-09-25T23:09:14.621Z,99345.75
2022-09-25T23:11:42.152Z,99343.25
2022-09-25T23:14:17.238Z,99347.16
2022-09-25T23:16:46.008Z,99355.41
2022-09-25T23:19:13.233Z,99374.03
2022-09-25T23:21:40.527Z,99373.31
2022-09-25T23:24:11.409Z,99367.47
2022-09-25T23:26:38.952Z,99349.69
2022-09-25T23:29:06.162Z,99344.63
2022-09-25T23:31:34.028Z,99334.16
2022-09-25T23:34:02.029Z,99328.16
2022-09-25T23:36:30.500Z,99327.31
2022-09-25T23:39:00.623Z,99335.44
2022-09-25T23:41:27.499Z,99331.34
2022-09-25T23:43:55.797Z,99345.63
2022-09-25T23:46:24.989Z,99338.63
2022-09-25T23:48:52.981Z,99343.25
2022-09-25T23:51:20.924Z,99345.19
2022-09-25T23:53:47.883Z,99342.69
2022-09-25T23:56:16.956Z,99343.66
2022-09-25T23:58:44.135Z,99342.13
